Dades meteomassalio
Diari Summary for Noviembre 9, 2017 Units:  English    Metric   Both
« Previous Day
Next Day »
Diari Semanal Mensual Anual Personalitzat
  Maxima: Minima: Mijana:
Temperatura: TemperatureC °F 4.4 °F 8.4 °F
Rosada: DewpointC °F 0.0 °F 2.8 °F
Humitat: Humidity % 52 % 68 %
Velocitat del vent: WindSpeedKMH mph 0.0 mph 23.7 mph
Racha vent: WindSpeedGustKMH mph - -
Vent:- - NW
Pressio: PressurehPa in 1025.6 in -
Pluja: 0.0 in    
Historical Graphs
 
 
Tabular Data for Noviembre 9, 2017
Time Temperature Dew Point Pressure Wind Wind Speed Wind Gust Humidity Rainfall Rate (Hourly) solar Conditions
TemperatureC °F DewpointC °F PressurehPa in Calm     Humidity % HourlyPrecipMM in SolarRadiationWatts/m^2 W/m2 Conditions
00:04 6.1 °F 1.8 °F 1026.0 in NW 27.8 mph 27.8 mph 74 % 0.0 in 0.0 W/m2 CLR
00:09 6.1 °F 1.8 °F 1026.0 in NW 31.5 mph 31.5 mph 74 % 0.0 in 0.0 W/m2 CLR
00:14 6.1 °F 1.8 °F 1026.0 in NNW 19.3 mph 19.3 mph 74 % 0.0 in 0.0 W/m2 CLR
00:19 6.1 °F 1.8 °F 1026.0 in NW 18.5 mph 18.5 mph 74 % 0.0 in 0.0 W/m2 CLR
00:24 6.1 °F 1.8 °F 1026.0 in NW 25.9 mph 25.9 mph 74 % 0.0 in 0.0 W/m2 CLR
00:29 6.1 °F 1.6 °F 1026.3 in WNW 18.5 mph 18.5 mph 73 % 0.0 in 0.0 W/m2 CLR
00:34 5.6 °F 1.3 °F 1026.3 in NW 16.7 mph 16.7 mph 74 % 0.0 in 0.0 W/m2 CLR
00:39 5.6 °F 1.3 °F 1026.3 in NW 18.5 mph 18.5 mph 74 % 0.0 in 0.0 W/m2 CLR
00:44 5.6 °F 1.3 °F 1026.3 in NW 18.5 mph 18.5 mph 74 % 0.0 in 0.0 W/m2 CLR
00:49 5.6 °F 1.3 °F 1026.6 in NW 16.7 mph 16.7 mph 74 % 0.0 in 0.0 W/m2 CLR
00:54 5.6 °F 1.3 °F 1026.6 in NNW 20.4 mph 20.4 mph 74 % 0.0 in 0.0 W/m2 CLR
00:59 5.6 °F 1.3 °F 1026.6 in NW 18.5 mph 18.5 mph 74 % 0.0 in 0.0 W/m2 CLR
01:04 5.6 °F 1.3 °F 1026.6 in NNW 20.4 mph 20.4 mph 74 % 0.0 in 0.0 W/m2 CLR
01:09 5.6 °F 1.3 °F 1026.6 in NW 25.9 mph 25.9 mph 74 % 0.0 in 0.0 W/m2 CLR
01:15 5.6 °F 1.3 °F 1026.6 in NW 24.1 mph 24.1 mph 74 % 0.0 in 0.0 W/m2 CLR
01:20 5.6 °F 1.1 °F 1026.6 in NNW 18.5 mph 18.5 mph 73 % 0.0 in 0.0 W/m2 CLR
01:25 5.6 °F 1.3 °F 1026.6 in NW 19.3 mph 19.3 mph 74 % 0.0 in 0.0 W/m2 CLR
01:30 5.6 °F 1.3 °F 1026.6 in NW 24.1 mph 24.1 mph 74 % 0.0 in 0.0 W/m2 CLR
01:35 5.6 °F 1.3 °F 1026.3 in NW 20.4 mph 20.4 mph 74 % 0.0 in 0.0 W/m2 CLR
01:40 5.6 °F 1.3 °F 1026.3 in NW 20.4 mph 20.4 mph 74 % 0.0 in 0.0 W/m2 CLR
01:45 5.6 °F 1.3 °F 1026.3 in WNW 16.7 mph 16.7 mph 74 % 0.0 in 0.0 W/m2 CLR
01:50 5.6 °F 1.3 °F 1026.6 in NW 18.5 mph 18.5 mph 74 % 0.0 in 0.0 W/m2 CLR
01:55 5.6 °F 1.3 °F 1026.6 in WNW 16.7 mph 16.7 mph 74 % 0.0 in 0.0 W/m2 CLR
02:00 5.0 °F 0.7 °F 1026.3 in NW 20.4 mph 20.4 mph 74 % 0.0 in 0.0 W/m2 CLR
02:05 5.0 °F 0.7 °F 1026.6 in WNW 19.3 mph 19.3 mph 74 % 0.0 in 0.0 W/m2 CLR
02:10 5.0 °F 0.7 °F 1026.3 in WNW 13.0 mph 13.0 mph 74 % 0.0 in 0.0 W/m2 CLR
02:15 5.0 °F 0.7 °F 1026.6 in NW 16.7 mph 16.7 mph 74 % 0.0 in 0.0 W/m2 CLR
02:20 5.0 °F 0.7 °F 1026.6 in NW 14.8 mph 14.8 mph 74 % 0.0 in 0.0 W/m2 CLR
02:25 4.4 °F 0.2 °F 1026.6 in NW 14.8 mph 14.8 mph 74 % 0.0 in 0.0 W/m2 CLR
02:30 4.4 °F 0.2 °F 1026.6 in NW 13.0 mph 13.0 mph 74 % 0.0 in 0.0 W/m2 CLR
02:35 4.4 °F 0.2 °F 1026.3 in WNW 18.5 mph 18.5 mph 74 % 0.0 in 0.0 W/m2 CLR
02:40 4.4 °F 0.2 °F 1026.3 in WNW 16.7 mph 16.7 mph 74 % 0.0 in 0.0 W/m2 CLR
02:45 4.4 °F 0.2 °F 1026.3 in NW 18.5 mph 18.5 mph 74 % 0.0 in 0.0 W/m2 CLR
02:50 4.4 °F 0.2 °F 1026.3 in WNW 18.5 mph 18.5 mph 74 % 0.0 in 0.0 W/m2 CLR
02:55 5.0 °F 0.7 °F 1026.3 in NW 18.5 mph 18.5 mph 74 % 0.0 in 0.0 W/m2 CLR
03:00 5.0 °F 0.6 °F 1026.3 in NW 18.5 mph 18.5 mph 73 % 0.0 in 0.0 W/m2 CLR
03:05 5.0 °F 0.6 °F 1026.3 in WNW 16.7 mph 16.7 mph 73 % 0.0 in 0.0 W/m2 CLR
03:10 5.6 °F 1.1 °F 1026.3 in NW 18.5 mph 18.5 mph 73 % 0.0 in 0.0 W/m2 CLR
03:15 5.6 °F 1.1 °F 1026.3 in WNW 22.2 mph 22.2 mph 73 % 0.0 in 0.0 W/m2 CLR
03:20 5.0 °F 0.6 °F 1026.3 in West 16.7 mph 16.7 mph 73 % 0.0 in 0.0 W/m2 CLR
03:25 5.0 °F 0.7 °F 1026.3 in WNW 18.5 mph 18.5 mph 74 % 0.0 in 0.0 W/m2 CLR
03:30 5.0 °F 0.7 °F 1026.3 in WNW 16.7 mph 16.7 mph 74 % 0.0 in 0.0 W/m2 CLR
03:35 4.4 °F 0.2 °F 1026.3 in WNW 16.7 mph 16.7 mph 74 % 0.0 in 0.0 W/m2 CLR
03:40 4.4 °F 0.0 °F 1026.0 in NW 18.5 mph 18.5 mph 73 % 0.0 in 0.0 W/m2 CLR
03:45 4.4 °F 0.0 °F 1026.0 in NW 22.2 mph 22.2 mph 73 % 0.0 in 0.0 W/m2 CLR
03:50 5.0 °F 0.6 °F 1026.0 in WNW 16.7 mph 16.7 mph 73 % 0.0 in 0.0 W/m2 CLR
03:55 5.0 °F 0.6 °F 1026.0 in WNW 16.7 mph 16.7 mph 73 % 0.0 in 0.0 W/m2 CLR
04:00 5.0 °F 0.6 °F 1026.0 in WNW 18.5 mph 18.5 mph 73 % 0.0 in 0.0 W/m2 CLR
04:05 5.0 °F 0.6 °F 1026.0 in NNW 20.4 mph 20.4 mph 73 % 0.0 in 0.0 W/m2 CLR
04:10 5.0 °F 0.6 °F 1026.0 in NW 18.5 mph 18.5 mph 73 % 0.0 in 0.0 W/m2 CLR
04:19 5.0 °F 0.6 °F 1025.6 in NW 18.5 mph 18.5 mph 73 % 0.0 in 0.0 W/m2 CLR
04:21 5.6 °F 1.1 °F 1026.0 in NW 20.9 mph 20.9 mph 73 % 0.0 in 0.0 W/m2 CLR
04:26 5.6 °F 1.1 °F 1026.0 in NW 20.4 mph 20.4 mph 73 % 0.0 in 0.0 W/m2 CLR
04:27 5.6 °F 1.1 °F 1026.0 in NW 20.4 mph 20.4 mph 73 % 0.0 in 0.0 W/m2 CLR
04:28 5.6 °F 1.1 °F 1026.0 in NW 22.2 mph 22.2 mph 73 % 0.0 in 0.0 W/m2 CLR
04:31 5.6 °F 1.1 °F 1025.6 in NW 24.1 mph 24.1 mph 73 % 0.0 in 0.0 W/m2 CLR
04:36 5.6 °F 1.1 °F 1026.0 in WNW 18.5 mph 18.5 mph 73 % 0.0 in 0.0 W/m2 CLR
04:41 5.6 °F 1.1 °F 1026.0 in WNW 18.5 mph 18.5 mph 73 % 0.0 in 0.0 W/m2 CLR
04:42 5.6 °F 1.1 °F 1026.0 in WNW 24.1 mph 24.1 mph 73 % 0.0 in 0.0 W/m2 CLR
04:47 5.6 °F 1.1 °F 1026.0 in NW 22.2 mph 22.2 mph 73 % 0.0 in 0.0 W/m2 CLR
04:52 5.6 °F 1.1 °F 1026.0 in NW 22.2 mph 22.2 mph 73 % 0.0 in 0.0 W/m2 CLR
04:53 5.6 °F 1.1 °F 1026.0 in NW 20.4 mph 20.4 mph 73 % 0.0 in 0.0 W/m2 CLR
04:58 5.6 °F 1.1 °F 1026.0 in NW 18.5 mph 18.5 mph 73 % 0.0 in 0.0 W/m2 CLR
05:03 5.6 °F 1.1 °F 1026.0 in WNW 20.4 mph 20.4 mph 73 % 0.0 in 0.0 W/m2 CLR
05:08 5.6 °F 1.1 °F 1026.0 in NW 18.5 mph 18.5 mph 73 % 0.0 in 0.0 W/m2 CLR
05:13 5.6 °F 1.1 °F 1026.0 in NW 17.7 mph 17.7 mph 73 % 0.0 in 0.0 W/m2 CLR
05:18 5.6 °F 1.1 °F 1026.0 in NW 25.7 mph 25.7 mph 73 % 0.0 in 0.0 W/m2 CLR
05:23 5.6 °F 1.1 °F 1026.0 in NW 20.4 mph 20.4 mph 73 % 0.0 in 0.0 W/m2 CLR
05:28 5.6 °F 1.1 °F 1026.0 in WNW 16.1 mph 16.1 mph 73 % 0.0 in 0.0 W/m2 CLR
05:29 5.6 °F 1.1 °F 1026.0 in NNW 16.7 mph 16.7 mph 73 % 0.0 in 0.0 W/m2 CLR
05:34 5.6 °F 1.1 °F 1026.0 in WNW 16.7 mph 16.7 mph 73 % 0.0 in 0.0 W/m2 CLR
05:39 5.6 °F 1.3 °F 1026.0 in NW 18.5 mph 18.5 mph 74 % 0.0 in 0.0 W/m2 CLR
05:44 5.6 °F 1.1 °F 1026.3 in WNW 16.7 mph 16.7 mph 73 % 0.0 in 0.0 W/m2 CLR
05:49 5.6 °F 1.1 °F 1026.3 in NW 16.7 mph 16.7 mph 73 % 0.0 in 0.0 W/m2 CLR
05:54 5.6 °F 1.1 °F 1026.0 in WNW 13.0 mph 13.0 mph 73 % 0.0 in 0.0 W/m2 CLR
05:59 5.6 °F 1.1 °F 1026.0 in WNW 14.8 mph 14.8 mph 73 % 0.0 in 0.0 W/m2 CLR
06:04 5.6 °F 1.1 °F 1026.0 in NW 9.7 mph 9.7 mph 73 % 0.0 in 0.0 W/m2 CLR
06:09 5.6 °F 1.1 °F 1026.0 in WNW 9.7 mph 9.7 mph 73 % 0.0 in 0.0 W/m2 CLR
06:14 5.6 °F 1.1 °F 1026.0 in West 16.1 mph 16.1 mph 73 % 0.0 in 0.0 W/m2 CLR
06:20 5.6 °F 1.1 °F 1026.0 in WNW 11.1 mph 11.1 mph 73 % 0.0 in 0.0 W/m2 CLR
06:24 5.6 °F 1.1 °F 1026.0 in NW 14.8 mph 14.8 mph 73 % 0.0 in 0.0 W/m2 CLR
06:30 5.6 °F 1.1 °F 1026.3 in Calm     73 % 0.0 in 0.0 W/m2 CLR
06:35 5.6 °F 1.1 °F 1026.0 in North 16.1 mph 16.1 mph 73 % 0.0 in 0.0 W/m2 CLR
06:40 6.1 °F 1.8 °F 1026.3 in NW 13.0 mph 13.0 mph 74 % 0.0 in 0.0 W/m2 CLR
06:45 6.1 °F 1.6 °F 1026.3 in NW 16.7 mph 16.7 mph 73 % 0.0 in 0.0 W/m2 CLR
06:50 6.1 °F 1.6 °F 1026.3 in NW 13.0 mph 13.0 mph 73 % 0.0 in 0.0 W/m2 CLR
06:55 6.1 °F 1.6 °F 1026.3 in NNW 11.1 mph 11.1 mph 73 % 0.0 in 0.0 W/m2 CLR
07:00 6.1 °F 1.6 °F 1026.3 in NW 13.0 mph 13.0 mph 73 % 0.0 in 0.0 W/m2 CLR
07:05 6.1 °F 1.6 °F 1026.3 in NW 7.4 mph 7.4 mph 73 % 0.0 in 0.0 W/m2 CLR
07:10 6.1 °F 1.6 °F 1026.6 in NNW 16.7 mph 16.7 mph 73 % 0.0 in 0.0 W/m2 CLR
07:15 6.1 °F 1.6 °F 1026.3 in NNW 9.3 mph 9.5 mph 73 % 0.0 in 0.0 W/m2 CLR
07:20 6.1 °F 1.6 °F 1026.3 in NW 14.8 mph 14.8 mph 73 % 0.0 in 0.0 W/m2 CLR
07:25 6.7 °F 2.2 °F 1026.3 in North 14.8 mph 14.8 mph 73 % 0.0 in 0.0 W/m2 CLR
07:30 6.7 °F 2.2 °F 1026.3 in NW 13.0 mph 13.0 mph 73 % 0.0 in 0.0 W/m2 CLR
07:35 6.7 °F 2.2 °F 1026.3 in NW 16.7 mph 16.7 mph 73 % 0.0 in 0.0 W/m2 OVC
07:37 6.7 °F 2.2 °F 1026.3 in WNW 14.8 mph 14.8 mph 73 % 0.0 in 0.0 W/m2 OVC
07:42 6.7 °F 2.2 °F 1026.3 in WNW 9.3 mph 9.3 mph 73 % 0.0 in 5.0 W/m2 OVC
07:47 6.7 °F 2.2 °F 1026.6 in NW 7.4 mph 7.6 mph 73 % 0.0 in 7.0 W/m2 OVC
07:52 6.7 °F 2.2 °F 1026.6 in West 14.8 mph 14.8 mph 73 % 0.0 in 12.0 W/m2 OVC
07:57 6.7 °F 2.2 °F 1026.6 in NNW 9.3 mph 9.3 mph 73 % 0.0 in 16.0 W/m2 OVC
08:02 6.7 °F 2.2 °F 1026.6 in NNW 8.0 mph 8.0 mph 73 % 0.0 in 16.0 W/m2 OVC
08:07 6.7 °F 2.2 °F 1026.6 in NW 20.4 mph 20.4 mph 73 % 0.0 in 25.0 W/m2 OVC
08:12 6.7 °F 2.2 °F 1027.0 in NNW 22.5 mph 22.5 mph 73 % 0.0 in 21.0 W/m2 OVC
08:17 6.7 °F 2.2 °F 1027.0 in NNW 18.5 mph 18.5 mph 73 % 0.0 in 21.0 W/m2 OVC
08:22 6.7 °F 2.2 °F 1027.0 in NW 25.9 mph 25.9 mph 73 % 0.0 in 25.0 W/m2 OVC
08:27 6.7 °F 2.2 °F 1027.0 in NNW 27.8 mph 27.8 mph 73 % 0.0 in 26.0 W/m2 OVC
08:32 7.2 °F 2.7 °F 1027.0 in North 20.4 mph 20.4 mph 73 % 0.0 in 28.0 W/m2 OVC
08:37 7.2 °F 2.9 °F 1027.3 in NW 22.2 mph 22.2 mph 74 % 0.0 in 39.0 W/m2 OVC
08:42 7.2 °F 2.9 °F 1027.3 in NNW 20.9 mph 20.9 mph 74 % 0.0 in 46.0 W/m2 OVC
08:47 7.2 °F 2.9 °F 1027.3 in NW 14.8 mph 14.8 mph 74 % 0.0 in 49.0 W/m2 BKN
08:52 7.2 °F 2.7 °F 1027.3 in North 14.8 mph 14.8 mph 73 % 0.0 in 69.0 W/m2 SCT
08:57 7.2 °F 2.7 °F 1027.3 in NNW 18.5 mph 18.5 mph 73 % 0.0 in 69.0 W/m2 FEW
09:02 7.8 °F 3.2 °F 1027.7 in NNW 18.5 mph 18.5 mph 73 % 0.0 in 88.0 W/m2 FEW
09:07 7.8 °F 3.2 °F 1027.7 in NNW 25.9 mph 25.9 mph 73 % 0.0 in 98.0 W/m2 CLR
09:12 7.8 °F 3.1 °F 1027.7 in WNW 18.5 mph 18.5 mph 72 % 0.0 in 113.0 W/m2 CLR
09:17 7.8 °F 3.2 °F 1027.3 in NNW 16.1 mph 16.1 mph 73 % 0.0 in 128.0 W/m2 CLR
09:22 7.8 °F 3.1 °F 1027.3 in ESE 19.3 mph 19.3 mph 72 % 0.0 in 223.0 W/m2 CLR
09:27 8.3 °F 3.6 °F 1027.3 in NW 25.9 mph 25.9 mph 72 % 0.0 in 160.0 W/m2 CLR
09:32 8.3 °F 3.6 °F 1027.3 in NNW 27.8 mph 27.8 mph 72 % 0.0 in 239.0 W/m2 CLR
09:37 8.9 °F 3.9 °F 1027.7 in NNW 25.7 mph 25.7 mph 71 % 0.0 in 146.0 W/m2 CLR
09:42 8.3 °F 3.4 °F 1027.7 in NW 35.2 mph 35.2 mph 71 % 0.0 in 288.0 W/m2 CLR
09:47 8.9 °F 3.9 °F 1027.7 in NW 24.1 mph 24.1 mph 71 % 0.0 in 323.0 W/m2 CLR
09:52 8.9 °F 3.7 °F 1027.3 in NNW 18.5 mph 18.5 mph 70 % 0.0 in 410.0 W/m2 CLR
09:57 9.4 °F 4.1 °F 1027.7 in NNE 33.8 mph 33.8 mph 69 % 0.0 in 295.0 W/m2 CLR
10:02 9.4 °F 4.1 °F 1027.3 in NW 11.1 mph 11.1 mph 69 % 0.0 in 387.0 W/m2 CLR
10:07 9.4 °F 3.8 °F 1027.3 in North 30.6 mph 30.6 mph 68 % 0.0 in 294.0 W/m2 CLR
10:12 9.4 °F 3.8 °F 1027.3 in NNW 35.4 mph 35.4 mph 68 % 0.0 in 167.0 W/m2 CLR
10:17 9.4 °F 3.8 °F 1027.3 in NNW 35.2 mph 35.2 mph 68 % 0.0 in 183.0 W/m2 CLR
10:22 9.4 °F 3.8 °F 1027.7 in North 29.6 mph 29.6 mph 68 % 0.0 in 132.0 W/m2 CLR
10:27 9.4 °F 3.8 °F 1027.3 in NNW 38.9 mph 38.9 mph 68 % 0.0 in 125.0 W/m2 CLR
10:32 10.0 °F 4.2 °F 1027.7 in NNW 29.6 mph 29.6 mph 67 % 0.0 in 478.0 W/m2 CLR
10:37 10.0 °F 3.9 °F 1027.3 in North 27.8 mph 27.8 mph 66 % 0.0 in 399.0 W/m2 CLR
10:42 10.6 °F 4.4 °F 1027.3 in NW 24.1 mph 24.1 mph 66 % 0.0 in 183.0 W/m2 CLR
10:47 10.6 °F 4.4 °F 1027.7 in NW 31.5 mph 31.5 mph 66 % 0.0 in 151.0 W/m2 CLR
10:52 10.0 °F 3.9 °F 1027.7 in North 31.5 mph 31.5 mph 66 % 0.0 in 297.0 W/m2 CLR
10:57 10.6 °F 4.4 °F 1027.7 in North 31.5 mph 31.5 mph 66 % 0.0 in 167.0 W/m2 CLR
11:02 10.6 °F 4.4 °F 1027.7 in NW 42.6 mph 42.6 mph 66 % 0.0 in 176.0 W/m2 CLR
11:07 10.6 °F 4.4 °F 1027.7 in North 27.8 mph 27.8 mph 66 % 0.0 in 176.0 W/m2 CLR
11:12 11.1 °F 4.8 °F 1028.0 in NNW 31.5 mph 31.5 mph 65 % 0.0 in 480.0 W/m2 CLR
11:22 11.1 °F 4.8 °F 1027.7 in NW 31.5 mph 31.5 mph 65 % 0.0 in 220.0 W/m2 CLR
11:27 11.1 °F 4.3 °F 1027.7 in North 38.9 mph 38.9 mph 63 % 0.0 in 664.0 W/m2 CLR
11:32 11.1 °F 4.3 °F 1027.7 in North 29.6 mph 29.6 mph 63 % 0.0 in 540.0 W/m2 CLR
11:37 11.1 °F 4.3 °F 1027.7 in NW 24.1 mph 24.1 mph 63 % 0.0 in 517.0 W/m2 CLR
11:42 11.7 °F 4.6 °F 1027.3 in NNW 42.6 mph 42.6 mph 62 % 0.0 in 527.0 W/m2 CLR
11:47 11.7 °F 4.6 °F 1027.3 in NW 42.6 mph 42.6 mph 62 % 0.0 in 221.0 W/m2 CLR
11:52 11.1 °F 4.1 °F 1027.7 in NNW 38.9 mph 38.9 mph 62 % 0.0 in 522.0 W/m2 CLR
11:57 11.7 °F 4.6 °F 1027.7 in NNW 33.8 mph 33.8 mph 62 % 0.0 in 545.0 W/m2 CLR
12:02 11.7 °F 4.4 °F 1027.7 in NNW 38.9 mph 38.9 mph 61 % 0.0 in 146.0 W/m2 CLR
12:07 11.1 °F 4.1 °F 1027.3 in North 31.5 mph 31.5 mph 62 % 0.0 in 548.0 W/m2 CLR
12:12 11.7 °F 4.4 °F 1027.0 in NW 31.5 mph 31.5 mph 61 % 0.0 in 547.0 W/m2 CLR
12:17 11.1 °F 3.9 °F 1026.6 in NW 29.6 mph 29.6 mph 61 % 0.0 in 526.0 W/m2 CLR
12:22 11.7 °F 4.4 °F 1026.6 in NNW 29.6 mph 29.6 mph 61 % 0.0 in 524.0 W/m2 CLR
12:27 12.2 °F 4.4 °F 1026.6 in NW 31.5 mph 31.5 mph 59 % 0.0 in 527.0 W/m2 CLR
12:32 12.2 °F 4.4 °F 1026.6 in North 27.8 mph 27.8 mph 59 % 0.0 in 547.0 W/m2 CLR
12:37 12.8 °F 4.9 °F 1026.6 in North 31.5 mph 31.5 mph 59 % 0.0 in 570.0 W/m2 CLR
12:42 12.8 °F 4.7 °F 1026.6 in North 29.6 mph 29.6 mph 58 % 0.0 in 563.0 W/m2 CLR
12:47 12.8 °F 4.7 °F 1026.6 in NNW 25.9 mph 25.9 mph 58 % 0.0 in 227.0 W/m2 CLR
12:52 12.2 °F 4.2 °F 1027.0 in NNE 31.5 mph 31.5 mph 58 % 0.0 in 130.0 W/m2 CLR
12:57 11.7 °F 3.9 °F 1026.6 in NW 20.9 mph 20.9 mph 59 % 0.0 in 183.0 W/m2 CLR
13:02 11.7 °F 3.9 °F 1026.6 in North 32.2 mph 32.2 mph 59 % 0.0 in 200.0 W/m2 CLR
13:07 11.7 °F 3.9 °F 1026.6 in North 33.3 mph 33.3 mph 59 % 0.0 in 186.0 W/m2 CLR
13:12 12.2 °F 4.7 °F 1027.0 in NW 27.8 mph 27.8 mph 60 % 0.0 in 193.0 W/m2 CLR
13:17 12.2 °F 4.7 °F 1027.0 in NNW 32.2 mph 32.2 mph 60 % 0.0 in 202.0 W/m2 CLR
13:22 11.7 °F 3.9 °F 1026.6 in NNW 35.2 mph 35.2 mph 59 % 0.0 in 178.0 W/m2 CLR
13:27 11.7 °F 3.9 °F 1026.6 in NNW 27.8 mph 27.8 mph 59 % 0.0 in 165.0 W/m2 CLR
13:32 12.2 °F 4.4 °F 1026.3 in NNW 29.6 mph 29.6 mph 59 % 0.0 in 439.0 W/m2 CLR
13:37 12.2 °F 4.2 °F 1026.3 in NNW 33.3 mph 33.3 mph 58 % 0.0 in 100.0 W/m2 CLR
13:42 12.2 °F 4.4 °F 1026.0 in NNW 29.0 mph 29.0 mph 59 % 0.0 in 510.0 W/m2 CLR
13:47 12.8 °F 4.7 °F 1026.0 in NW 27.8 mph 27.8 mph 58 % 0.0 in 499.0 W/m2 CLR
13:53 13.3 °F 4.7 °F 1026.0 in NW 33.3 mph 33.3 mph 56 % 0.0 in 501.0 W/m2 CLR
13:58 13.9 °F 5.2 °F 1026.0 in NW 27.8 mph 27.8 mph 56 % 0.0 in 515.0 W/m2 CLR
14:03 13.9 °F 5.0 °F 1025.6 in North 31.5 mph 31.5 mph 55 % 0.0 in 499.0 W/m2 CLR
14:08 13.9 °F 5.0 °F 1026.0 in NW 27.8 mph 27.8 mph 55 % 0.0 in 104.0 W/m2 CLR
14:13 13.3 °F 4.7 °F 1025.6 in NW 31.5 mph 31.5 mph 56 % 0.0 in 480.0 W/m2 CLR
14:18 13.3 °F 4.2 °F 1025.6 in NW 31.5 mph 31.5 mph 54 % 0.0 in 452.0 W/m2 CLR
14:23 13.9 °F 4.2 °F 1025.6 in North 42.6 mph 42.6 mph 52 % 0.0 in 496.0 W/m2 CLR
14:28 13.3 °F 3.9 °F 1025.6 in NW 42.6 mph 42.6 mph 53 % 0.0 in 84.0 W/m2 CLR
14:33 12.8 °F 3.7 °F 1025.6 in NNW 35.4 mph 35.4 mph 54 % 0.0 in 257.0 W/m2 CLR
14:38 12.8 °F 3.7 °F 1025.6 in North 18.5 mph 20.9 mph 54 % 0.0 in 109.0 W/m2 CLR
14:43 12.8 °F 3.7 °F 1026.0 in NNW 33.3 mph 33.3 mph 54 % 0.0 in 139.0 W/m2 CLR
14:48 12.8 °F 3.7 °F 1026.0 in NNW 27.8 mph 27.8 mph 54 % 0.0 in 499.0 W/m2 CLR
14:53 13.3 °F 3.9 °F 1025.6 in North 37.0 mph 37.0 mph 53 % 0.0 in 120.0 W/m2 CLR
14:58 13.3 °F 3.9 °F 1026.0 in NNW 40.7 mph 40.7 mph 53 % 0.0 in 123.0 W/m2 CLR
15:03 12.8 °F 3.7 °F 1026.0 in North 31.5 mph 31.5 mph 54 % 0.0 in 84.0 W/m2 CLR
15:08 12.8 °F 3.7 °F 1026.0 in North 27.4 mph 27.4 mph 54 % 0.0 in 88.0 W/m2 CLR
15:13 12.2 °F 3.4 °F 1025.6 in NNW 31.5 mph 31.5 mph 55 % 0.0 in 121.0 W/m2 CLR
15:18 12.8 °F 3.7 °F 1025.6 in NNW 42.6 mph 42.6 mph 54 % 0.0 in 83.0 W/m2 CLR
15:23 12.8 °F 3.7 °F 1025.6 in North 31.5 mph 31.5 mph 54 % 0.0 in 200.0 W/m2 CLR
15:28 12.2 °F 3.4 °F 1025.6 in NW 24.1 mph 24.1 mph 55 % 0.0 in 95.0 W/m2 CLR
15:33 12.2 °F 3.7 °F 1026.0 in North 33.3 mph 33.3 mph 56 % 0.0 in 54.0 W/m2 FEW
15:38 12.2 °F 3.9 °F 1025.6 in NW 27.8 mph 27.8 mph 57 % 0.0 in 153.0 W/m2 FEW
15:43 12.8 °F 4.2 °F 1025.6 in NW 27.8 mph 27.8 mph 56 % 0.0 in 316.0 W/m2 CLR
15:48 12.8 °F 3.9 °F 1025.6 in NNW 29.6 mph 29.6 mph 55 % 0.0 in 77.0 W/m2 CLR
15:53 12.8 °F 3.9 °F 1026.0 in NNW 32.2 mph 32.2 mph 55 % 0.0 in 47.0 W/m2 CLR
15:58 12.2 °F 3.7 °F 1026.0 in WNW 31.5 mph 31.5 mph 56 % 0.0 in 244.0 W/m2 FEW
16:03 12.2 °F 3.7 °F 1026.0 in NNW 31.5 mph 31.5 mph 56 % 0.0 in 42.0 W/m2 SCT
16:08 12.2 °F 3.7 °F 1026.0 in NNW 33.3 mph 33.3 mph 56 % 0.0 in 54.0 W/m2 SCT
16:13 12.2 °F 3.7 °F 1026.0 in North 27.8 mph 27.8 mph 56 % 0.0 in 65.0 W/m2 SCT
16:18 12.2 °F 3.7 °F 1026.3 in NNW 33.8 mph 33.8 mph 56 % 0.0 in 33.0 W/m2 SCT
16:23 11.7 °F 3.2 °F 1026.3 in North 25.9 mph 25.9 mph 56 % 0.0 in 33.0 W/m2 SCT
16:28 11.7 °F 3.4 °F 1026.3 in NW 27.8 mph 27.8 mph 57 % 0.0 in 32.0 W/m2 BKN
16:33 11.7 °F 3.4 °F 1026.3 in NNW 29.0 mph 29.0 mph 57 % 0.0 in 26.0 W/m2 BKN
16:38 11.7 °F 3.4 °F 1026.0 in NW 22.2 mph 22.2 mph 57 % 0.0 in 25.0 W/m2 BKN
16:43 11.7 °F 3.4 °F 1026.0 in NNW 31.5 mph 31.5 mph 57 % 0.0 in 25.0 W/m2 BKN
16:48 11.1 °F 2.9 °F 1026.3 in NNW 24.1 mph 24.1 mph 57 % 0.0 in 25.0 W/m2 BKN
16:53 11.1 °F 2.9 °F 1026.3 in North 35.2 mph 35.2 mph 57 % 0.0 in 26.0 W/m2 BKN
16:58 11.1 °F 3.2 °F 1026.3 in NNW 22.5 mph 22.5 mph 58 % 0.0 in 33.0 W/m2 BKN
17:03 11.1 °F 3.2 °F 1026.3 in NNW 31.5 mph 31.5 mph 58 % 0.0 in 23.0 W/m2 BKN
17:08 11.1 °F 3.2 °F 1026.3 in North 29.0 mph 29.0 mph 58 % 0.0 in 21.0 W/m2 BKN
17:13 11.1 °F 3.4 °F 1026.3 in NNW 24.1 mph 24.1 mph 59 % 0.0 in 18.0 W/m2 BKN
17:18 11.1 °F 3.4 °F 1026.3 in NNW 31.5 mph 31.5 mph 59 % 0.0 in 21.0 W/m2 BKN
17:23 11.1 °F 3.6 °F 1026.3 in North 33.8 mph 33.8 mph 60 % 0.0 in 19.0 W/m2 BKN
17:28 11.1 °F 3.6 °F 1026.3 in NW 25.9 mph 25.9 mph 60 % 0.0 in 16.0 W/m2 BKN
17:33 11.1 °F 3.6 °F 1026.3 in NNW 29.6 mph 29.6 mph 60 % 0.0 in 14.0 W/m2 BKN
17:38 10.6 °F 3.3 °F 1026.3 in NNW 31.5 mph 31.5 mph 61 % 0.0 in 11.0 W/m2 BKN
17:43 10.6 °F 3.3 °F 1026.6 in NNW 42.6 mph 42.6 mph 61 % 0.0 in 7.0 W/m2 BKN
17:48 10.6 °F 3.6 °F 1026.6 in WNW 35.4 mph 35.4 mph 62 % 0.0 in 0.0 W/m2 OVC
17:53 10.6 °F 3.8 °F 1026.6 in NNW 29.6 mph 29.6 mph 63 % 0.0 in 0.0 W/m2 OVC
17:54 10.6 °F 3.8 °F 1026.6 in NNW 29.6 mph 29.6 mph 63 % 0.0 in 0.0 W/m2 OVC
17:59 10.0 °F 3.3 °F 1026.6 in NW 16.7 mph 16.7 mph 63 % 0.0 in 0.0 W/m2 CLR
18:04 10.0 °F 3.5 °F 1026.6 in NW 24.1 mph 24.1 mph 64 % 0.0 in 0.0 W/m2 CLR
18:09 10.0 °F 3.7 °F 1026.6 in WNW 31.5 mph 31.5 mph 65 % 0.0 in 0.0 W/m2 CLR
18:14 9.4 °F 3.2 °F 1026.6 in WNW 35.2 mph 35.2 mph 65 % 0.0 in 0.0 W/m2 CLR
18:19 9.4 °F 3.2 °F 1027.0 in WNW 25.9 mph 25.9 mph 65 % 0.0 in 0.0 W/m2 CLR
18:24 9.4 °F 3.2 °F 1027.0 in NW 18.5 mph 18.5 mph 65 % 0.0 in 0.0 W/m2 CLR
18:29 9.4 °F 3.4 °F 1027.0 in NNW 29.0 mph 29.0 mph 66 % 0.0 in 0.0 W/m2 CLR
18:34 9.4 °F 3.4 °F 1027.3 in NW 25.9 mph 25.9 mph 66 % 0.0 in 0.0 W/m2 CLR
18:39 9.4 °F 3.4 °F 1027.3 in NW 22.2 mph 22.2 mph 66 % 0.0 in 0.0 W/m2 CLR
18:44 8.9 °F 2.9 °F 1027.3 in NW 16.7 mph 16.7 mph 66 % 0.0 in 0.0 W/m2 CLR
18:49 8.9 °F 3.3 °F 1027.3 in NNW 31.5 mph 31.5 mph 68 % 0.0 in 0.0 W/m2 CLR
18:54 8.9 °F 3.3 °F 1027.3 in NNW 20.9 mph 20.9 mph 68 % 0.0 in 0.0 W/m2 CLR
18:59 9.4 °F 4.1 °F 1027.7 in NW 16.7 mph 16.7 mph 69 % 0.0 in 0.0 W/m2 CLR
19:04 8.9 °F 3.5 °F 1027.7 in North 20.4 mph 20.4 mph 69 % 0.0 in 0.0 W/m2 CLR
19:09 8.9 °F 3.5 °F 1027.7 in WNW 20.4 mph 20.4 mph 69 % 0.0 in 0.0 W/m2 CLR
19:14 8.9 °F 3.5 °F 1027.7 in NNW 19.3 mph 19.3 mph 69 % 0.0 in 0.0 W/m2 CLR
19:19 8.9 °F 3.7 °F 1027.7 in NNW 14.8 mph 14.8 mph 70 % 0.0 in 0.0 W/m2 CLR
19:24 8.3 °F 3.2 °F 1027.7 in WNW 18.5 mph 18.5 mph 70 % 0.0 in 0.0 W/m2 CLR
19:29 8.3 °F 3.4 °F 1027.7 in NW 20.4 mph 20.4 mph 71 % 0.0 in 0.0 W/m2 CLR
19:34 8.9 °F 3.9 °F 1028.0 in NNW 25.9 mph 25.9 mph 71 % 0.0 in 0.0 W/m2 CLR
19:39 8.9 °F 3.9 °F 1028.0 in NW 29.6 mph 29.6 mph 71 % 0.0 in 0.0 W/m2 CLR
19:44 8.9 °F 4.1 °F 1028.0 in NNW 33.3 mph 33.3 mph 72 % 0.0 in 0.0 W/m2 CLR
19:49 8.9 °F 4.1 °F 1028.0 in NNW 25.9 mph 25.9 mph 72 % 0.0 in 0.0 W/m2 CLR
19:54 8.9 °F 4.3 °F 1028.0 in NW 31.5 mph 31.5 mph 73 % 0.0 in 0.0 W/m2 CLR
19:59 8.9 °F 4.3 °F 1028.0 in NW 31.5 mph 31.5 mph 73 % 0.0 in 0.0 W/m2 CLR
20:04 8.3 °F 3.8 °F 1028.0 in NW 25.9 mph 25.9 mph 73 % 0.0 in 0.0 W/m2 CLR
20:09 8.3 °F 3.8 °F 1028.0 in North 31.5 mph 31.5 mph 73 % 0.0 in 0.0 W/m2 CLR
20:14 8.3 °F 3.8 °F 1028.0 in NW 22.2 mph 22.2 mph 73 % 0.0 in 0.0 W/m2 CLR
20:19 8.3 °F 3.9 °F 1028.3 in NW 31.5 mph 31.5 mph 74 % 0.0 in 0.0 W/m2 CLR
20:24 8.3 °F 3.9 °F 1028.0 in WNW 18.5 mph 18.5 mph 74 % 0.0 in 0.0 W/m2 CLR
20:29 8.3 °F 3.9 °F 1028.0 in NW 29.6 mph 29.6 mph 74 % 0.0 in 0.0 W/m2 CLR
20:34 8.3 °F 3.9 °F 1028.0 in NNW 25.9 mph 25.9 mph 74 % 0.0 in 0.0 W/m2 CLR
20:39 8.3 °F 3.9 °F 1028.0 in NW 27.4 mph 27.4 mph 74 % 0.0 in 0.0 W/m2 CLR
20:44 8.3 °F 3.9 °F 1028.3 in NW 29.6 mph 29.6 mph 74 % 0.0 in 0.0 W/m2 CLR
20:49 8.3 °F 3.9 °F 1028.3 in WNW 22.2 mph 22.2 mph 74 % 0.0 in 0.0 W/m2 CLR
20:54 7.8 °F 3.4 °F 1028.3 in WNW 22.2 mph 22.2 mph 74 % 0.0 in 0.0 W/m2 CLR
20:59 7.8 °F 3.4 °F 1028.3 in NW 20.9 mph 20.9 mph 74 % 0.0 in 0.0 W/m2 CLR
21:04 7.8 °F 3.4 °F 1028.3 in NW 22.5 mph 22.5 mph 74 % 0.0 in 0.0 W/m2 CLR
21:09 7.8 °F 3.4 °F 1028.3 in ESE 18.5 mph 18.5 mph 74 % 0.0 in 0.0 W/m2 CLR
21:14 7.8 °F 3.4 °F 1028.3 in WNW 25.9 mph 25.9 mph 74 % 0.0 in 0.0 W/m2 CLR
21:19 7.8 °F 3.4 °F 1028.3 in NW 18.5 mph 18.5 mph 74 % 0.0 in 0.0 W/m2 CLR
21:24 7.8 °F 3.4 °F 1028.7 in NW 18.5 mph 18.5 mph 74 % 0.0 in 0.0 W/m2 CLR
21:29 7.8 °F 3.6 °F 1028.7 in WNW 22.2 mph 22.2 mph 75 % 0.0 in 0.0 W/m2 CLR
21:34 7.8 °F 3.6 °F 1028.7 in WNW 22.2 mph 22.2 mph 75 % 0.0 in 0.0 W/m2 CLR
21:39 7.8 °F 3.6 °F 1028.7 in WNW 18.5 mph 18.5 mph 75 % 0.0 in 0.0 W/m2 CLR
21:49 7.2 °F 3.1 °F 1029.0 in NW 16.7 mph 16.7 mph 75 % 0.0 in 0.0 W/m2 CLR
21:54 7.2 °F 3.1 °F 1028.7 in West 16.1 mph 16.1 mph 75 % 0.0 in 0.0 W/m2 CLR
21:59 7.2 °F 3.1 °F 1028.7 in West 16.7 mph 16.7 mph 75 % 0.0 in 0.0 W/m2 CLR
22:04 7.2 °F 3.1 °F 1029.0 in WNW 14.8 mph 14.8 mph 75 % 0.0 in 0.0 W/m2 CLR
22:09 7.2 °F 3.1 °F 1029.0 in NW 22.5 mph 22.5 mph 75 % 0.0 in 0.0 W/m2 CLR
22:14 7.2 °F 3.1 °F 1028.7 in WNW 22.2 mph 22.2 mph 75 % 0.0 in 0.0 W/m2 CLR
22:19 7.2 °F 3.1 °F 1029.0 in West 24.1 mph 24.1 mph 75 % 0.0 in 0.0 W/m2 CLR
22:24 7.2 °F 3.1 °F 1029.0 in WNW 20.4 mph 20.4 mph 75 % 0.0 in 0.0 W/m2 CLR
22:29 7.2 °F 3.1 °F 1029.0 in WNW 29.0 mph 29.0 mph 75 % 0.0 in 0.0 W/m2 CLR
22:34 7.8 °F 3.6 °F 1029.0 in WNW 22.5 mph 22.5 mph 75 % 0.0 in 0.0 W/m2 CLR
22:39 7.8 °F 3.6 °F 1029.0 in WNW 20.4 mph 20.4 mph 75 % 0.0 in 0.0 W/m2 CLR
22:44 7.8 °F 3.8 °F 1029.0 in WNW 22.2 mph 22.2 mph 76 % 0.0 in 0.0 W/m2 CLR
22:49 7.8 °F 3.8 °F 1029.0 in WNW 20.9 mph 20.9 mph 76 % 0.0 in 0.0 W/m2 CLR
22:54 7.2 °F 3.3 °F 1029.0 in West 25.9 mph 25.9 mph 76 % 0.0 in 0.0 W/m2 CLR
22:59 7.2 °F 3.3 °F 1029.0 in West 24.1 mph 24.1 mph 76 % 0.0 in 0.0 W/m2 CLR
23:04 7.2 °F 3.3 °F 1029.0 in WNW 18.5 mph 18.5 mph 76 % 0.0 in 0.0 W/m2 CLR
23:09 7.2 °F 3.3 °F 1029.0 in WNW 25.9 mph 25.9 mph 76 % 0.0 in 0.0 W/m2 CLR
23:14 7.2 °F 3.3 °F 1029.3 in WNW 25.9 mph 25.9 mph 76 % 0.0 in 0.0 W/m2 CLR
23:19 7.2 °F 3.3 °F 1029.0 in NW 22.2 mph 22.2 mph 76 % 0.0 in 0.0 W/m2 CLR
23:24 7.2 °F 3.3 °F 1029.0 in WNW 22.2 mph 22.2 mph 76 % 0.0 in 0.0 W/m2 CLR
23:29 7.2 °F 3.4 °F 1029.0 in NW 24.1 mph 24.1 mph 77 % 0.0 in 0.0 W/m2 CLR
23:34 7.2 °F 3.3 °F 1029.0 in NW 29.6 mph 29.6 mph 76 % 0.0 in 0.0 W/m2 CLR
23:39 7.2 °F 3.3 °F 1029.3 in NW 27.8 mph 27.8 mph 76 % 0.0 in 0.0 W/m2 CLR
23:44 7.2 °F 3.3 °F 1029.0 in WNW 27.8 mph 27.8 mph 76 % 0.0 in 0.0 W/m2 CLR
23:49 7.2 °F 3.3 °F 1029.3 in NW 29.6 mph 29.6 mph 76 % 0.0 in 0.0 W/m2 CLR
23:54 7.2 °F 3.3 °F 1029.0 in NW 27.8 mph 27.8 mph 76 % 0.0 in 0.0 W/m2 CLR
23:59 7.2 °F 3.1 °F 1029.0 in WNW 20.4 mph 20.4 mph 75 % 0.0 in 0.0 W/m2 CLR
Lo Temps de Massalio
Compliments of Weather Underground - 1.25 mb